sensor_id;sensor_type;location;lat;lon;timestamp;pressure;altitude;pressure_sealevel;temperature;humidity
64792;BME280;51226;47.504;19.074;2023-05-01T00:02:08;100541.94;;;14.14;54.40
64792;BME280;51226;47.504;19.074;2023-05-01T00:05:11;100547.09;;;14.11;54.39
64792;BME280;51226;47.504;19.074;2023-05-01T00:08:14;100542.66;;;14.08;54.87
64792;BME280;51226;47.504;19.074;2023-05-01T00:11:17;100538.22;;;14.06;55.15
64792;BME280;51226;47.504;19.074;2023-05-01T00:14:20;100532.06;;;14.04;54.77
64792;BME280;51226;47.504;19.074;2023-05-01T00:17:22;100534.56;;;13.99;55.03
64792;BME280;51226;47.504;19.074;2023-05-01T00:20:26;100536.25;;;13.97;54.78
64792;BME280;51226;47.504;19.074;2023-05-01T00:23:29;100529.13;;;13.93;54.74
64792;BME280;51226;47.504;19.074;2023-05-01T00:26:32;100533.44;;;13.91;54.76
64792;BME280;51226;47.504;19.074;2023-05-01T00:29:35;100531.75;;;13.92;54.67
64792;BME280;51226;47.504;19.074;2023-05-01T00:32:37;100530.78;;;13.89;54.75
64792;BME280;51226;47.504;19.074;2023-05-01T00:35:42;100539.59;;;13.92;54.56
64792;BME280;51226;47.504;19.074;2023-05-01T00:38:45;100534.28;;;13.88;54.51
64792;BME280;51226;47.504;19.074;2023-05-01T00:41:48;100528.34;;;13.96;53.84
64792;BME280;51226;47.504;19.074;2023-05-01T00:44:50;100530.66;;;13.83;54.47
64792;BME280;51226;47.504;19.074;2023-05-01T00:47:53;100531.34;;;13.78;55.11
64792;BME280;51226;47.504;19.074;2023-05-01T00:50:56;100534.84;;;13.77;55.37
64792;BME280;51226;47.504;19.074;2023-05-01T00:53:59;100530.47;;;13.77;55.52
64792;BME280;51226;47.504;19.074;2023-05-01T00:57:03;100532.25;;;13.78;55.30
64792;BME280;51226;47.504;19.074;2023-05-01T01:00:06;100531.31;;;13.76;55.10
64792;BME280;51226;47.504;19.074;2023-05-01T01:03:12;100530.38;;;13.74;55.16
64792;BME280;51226;47.504;19.074;2023-05-01T01:15:49;100532.78;;;13.65;54.68
64792;BME280;51226;47.504;19.074;2023-05-01T01:18:57;100526.56;;;13.63;54.56
64792;BME280;51226;47.504;19.074;2023-05-01T01:22:04;100535.25;;;13.60;54.50
64792;BME280;51226;47.504;19.074;2023-05-01T01:31:56;100532.53;;;13.57;54.12
64792;BME280;51226;47.504;19.074;2023-05-01T01:35:09;100529.81;;;13.54;54.52
64792;BME280;51226;47.504;19.074;2023-05-01T01:38:19;100531.44;;;13.49;54.95
64792;BME280;51226;47.504;19.074;2023-05-01T01:41:25;100529.59;;;13.45;55.15
64792;BME280;51226;47.504;19.074;2023-05-01T01:48:04;100531.19;;;13.41;55.22
64792;BME280;51226;47.504;19.074;2023-05-01T01:51:10;100539.94;;;13.40;55.13
64792;BME280;51226;47.504;19.074;2023-05-01T01:54:16;100532.91;;;13.39;55.04
64792;BME280;51226;47.504;19.074;2023-05-01T01:57:21;100539.00;;;13.40;55.08
64792;BME280;51226;47.504;19.074;2023-05-01T02:00:25;100534.69;;;13.40;55.41
64792;BME280;51226;47.504;19.074;2023-05-01T02:03:29;100536.38;;;13.40;55.70
64792;BME280;51226;47.504;19.074;2023-05-01T02:06:33;100547.69;;;13.37;56.09
64792;BME280;51226;47.504;19.074;2023-05-01T02:09:36;100537.16;;;13.36;56.59
64792;BME280;51226;47.504;19.074;2023-05-01T02:12:40;100534.44;;;13.32;57.17
64792;BME280;51226;47.504;19.074;2023-05-01T02:15:44;100535.59;;;13.42;58.19
64792;BME280;51226;47.504;19.074;2023-05-01T02:18:47;100538.03;;;13.36;59.25
64792;BME280;51226;47.504;19.074;2023-05-01T02:21:51;100538.91;;;13.35;60.21
64792;BME280;51226;47.504;19.074;2023-05-01T02:24:55;100534.22;;;13.26;61.11
64792;BME280;51226;47.504;19.074;2023-05-01T02:28:00;100535.13;;;13.27;61.70
64792;BME280;51226;47.504;19.074;2023-05-01T02:31:04;100535.53;;;13.10;62.42
64792;BME280;51226;47.504;19.074;2023-05-01T02:34:07;100534.63;;;13.10;63.07
64792;BME280;51226;47.504;19.074;2023-05-01T02:37:10;100540.75;;;13.10;63.21
64792;BME280;51226;47.504;19.074;2023-05-01T02:40:14;100539.94;;;13.13;63.45
64792;BME280;51226;47.504;19.074;2023-05-01T02:43:18;100541.31;;;13.00;63.84
64792;BME280;51226;47.504;19.074;2023-05-01T02:46:23;100536.91;;;12.99;64.19
64792;BME280;51226;47.504;19.074;2023-05-01T02:49:27;100536.91;;;12.99;64.18
64792;BME280;51226;47.504;19.074;2023-05-01T02:52:31;100538.41;;;12.91;64.59
64792;BME280;51226;47.504;19.074;2023-05-01T02:55:35;100535.09;;;12.96;64.61
64792;BME280;51226;47.504;19.074;2023-05-01T02:58:37;100537.53;;;12.90;64.92
64792;BME280;51226;47.504;19.074;2023-05-01T03:01:40;100544.72;;;12.97;64.73
64792;BME280;51226;47.504;19.074;2023-05-01T03:04:43;100546.56;;;13.00;64.76
64792;BME280;51226;47.504;19.074;2023-05-01T03:07:46;100549.78;;;12.91;64.91
64792;BME280;51226;47.504;19.074;2023-05-01T03:10:49;100541.94;;;12.91;65.11
64792;BME280;51226;47.504;19.074;2023-05-01T03:13:52;100548.87;;;12.91;64.69
64792;BME280;51226;47.504;19.074;2023-05-01T03:16:54;100543.13;;;13.03;64.06
64792;BME280;51226;47.504;19.074;2023-05-01T03:19:58;100556.00;;;12.95;64.15
64792;BME280;51226;47.504;19.074;2023-05-01T03:23:00;100555.09;;;12.94;64.46
64792;BME280;51226;47.504;19.074;2023-05-01T03:26:04;100556.88;;;12.95;64.77
64792;BME280;51226;47.504;19.074;2023-05-01T03:29:06;100563.28;;;13.05;64.92
64792;BME280;51226;47.504;19.074;2023-05-01T03:32:10;100559.69;;;13.02;65.16
64792;BME280;51226;47.504;19.074;2023-05-01T03:35:13;100564.94;;;13.02;65.43
64792;BME280;51226;47.504;19.074;2023-05-01T03:38:16;100559.75;;;13.03;65.59
64792;BME280;51226;47.504;19.074;2023-05-01T03:41:20;100565.28;;;13.14;65.38
64792;BME280;51226;47.504;19.074;2023-05-01T03:44:25;100558.94;;;13.06;65.68
64792;BME280;51226;47.504;19.074;2023-05-01T03:47:27;100569.41;;;13.06;66.34
64792;BME280;51226;47.504;19.074;2023-05-01T03:50:31;100568.38;;;13.01;66.47
64792;BME280;51226;47.504;19.074;2023-05-01T03:53:34;100564.41;;;13.13;66.48
64792;BME280;51226;47.504;19.074;2023-05-01T03:56:38;100564.16;;;13.06;66.68
64792;BME280;51226;47.504;19.074;2023-05-01T03:59:41;100566.66;;;13.01;66.87
64792;BME280;51226;47.504;19.074;2023-05-01T04:02:45;100569.31;;;13.03;67.01
64792;BME280;51226;47.504;19.074;2023-05-01T04:05:49;100574.66;;;13.06;66.83
64792;BME280;51226;47.504;19.074;2023-05-01T04:08:51;100567.56;;;13.02;66.87
64792;BME280;51226;47.504;19.074;2023-05-01T04:11:57;100567.56;;;13.02;66.78
64792;BME280;51226;47.504;19.074;2023-05-01T04:15:00;100566.66;;;13.01;66.86
64792;BME280;51226;47.504;19.074;2023-05-01T04:18:02;100566.37;;;12.92;67.03
64792;BME280;51226;47.504;19.074;2023-05-01T04:21:05;100574.12;;;12.89;67.37
64792;BME280;51226;47.504;19.074;2023-05-01T04:24:12;100568.13;;;12.91;67.44
64792;BME280;51226;47.504;19.074;2023-05-01T04:27:15;100568.94;;;12.90;67.30
64792;BME280;51226;47.504;19.074;2023-05-01T04:30:18;100567.09;;;12.88;67.56
64792;BME280;51226;47.504;19.074;2023-05-01T04:33:21;100576.94;;;12.95;67.36
64792;BME280;51226;47.504;19.074;2023-05-01T04:36:24;100581.44;;;12.99;67.00
64792;BME280;51226;47.504;19.074;2023-05-01T04:39:27;100581.28;;;12.94;67.02
64792;BME280;51226;47.504;19.074;2023-05-01T04:42:31;100582.84;;;12.89;67.52
64792;BME280;51226;47.504;19.074;2023-05-01T04:45:34;100590.66;;;12.88;68.00
64792;BME280;51226;47.504;19.074;2023-05-01T04:48:36;100589.22;;;12.97;68.28
64792;BME280;51226;47.504;19.074;2023-05-01T04:51:39;100590.34;;;13.06;68.08
64792;BME280;51226;47.504;19.074;2023-05-01T04:54:43;100585.03;;;13.03;68.53
64792;BME280;51226;47.504;19.074;2023-05-01T04:57:46;100591.62;;;12.90;69.05
64792;BME280;51226;47.504;19.074;2023-05-01T05:00:49;100593.28;;;12.88;69.43
64792;BME280;51226;47.504;19.074;2023-05-01T05:03:52;100594.13;;;12.87;69.59
64792;BME280;51226;47.504;19.074;2023-05-01T05:06:55;100593.69;;;13.00;69.31
64792;BME280;51226;47.504;19.074;2023-05-01T05:09:59;100596.19;;;12.97;69.34
64792;BME280;51226;47.504;19.074;2023-05-01T05:13:03;100605.75;;;12.95;70.03
64792;BME280;51226;47.504;19.074;2023-05-01T05:16:06;100599.75;;;12.99;70.40
64792;BME280;51226;47.504;19.074;2023-05-01T05:19:08;100606.22;;;13.10;69.09
64792;BME280;51226;47.504;19.074;2023-05-01T05:22:11;100599.09;;;13.06;69.02
64792;BME280;51226;47.504;19.074;2023-05-01T05:25:16;100600.16;;;13.11;69.13
64792;BME280;51226;47.504;19.074;2023-05-01T05:28:19;100604.31;;;13.32;67.26
64792;BME280;51226;47.504;19.074;2023-05-01T05:31:22;100605.97;;;13.30;67.03
64792;BME280;51226;47.504;19.074;2023-05-01T05:34:25;100607.91;;;13.36;66.50
64792;BME280;51226;47.504;19.074;2023-05-01T05:37:28;100605.56;;;13.45;65.97
64792;BME280;51226;47.504;19.074;2023-05-01T05:40:30;100618.69;;;13.46;65.45
64792;BME280;51226;47.504;19.074;2023-05-01T05:43:33;100611.28;;;13.62;64.50
64792;BME280;51226;47.504;19.074;2023-05-01T05:46:36;100610.81;;;13.46;63.61
64792;BME280;51226;47.504;19.074;2023-05-01T05:49:39;100618.03;;;13.53;62.34
64792;BME280;51226;47.504;19.074;2023-05-01T05:52:41;100610.03;;;13.49;63.04
64792;BME280;51226;47.504;19.074;2023-05-01T05:55:47;100612.12;;;13.61;62.81
64792;BME280;51226;47.504;19.074;2023-05-01T05:58:50;100605.28;;;13.66;61.87
64792;BME280;51226;47.504;19.074;2023-05-01T06:01:53;100611.97;;;13.85;59.60
64792;BME280;51226;47.504;19.074;2023-05-01T06:04:56;100611.28;;;13.92;58.98
64792;BME280;51226;47.504;19.074;2023-05-01T06:08:01;100621.72;;;13.90;58.33
64792;BME280;51226;47.504;19.074;2023-05-01T06:11:04;100609.53;;;13.93;57.71
64792;BME280;51226;47.504;19.074;2023-05-01T06:14:06;100614.09;;;14.00;56.31
64792;BME280;51226;47.504;19.074;2023-05-01T06:17:09;100614.94;;;14.31;54.42
64792;BME280;51226;47.504;19.074;2023-05-01T06:20:11;100610.75;;;14.37;53.76
64792;BME280;51226;47.504;19.074;2023-05-01T06:23:16;100621.16;;;14.34;54.63
64792;BME280;51226;47.504;19.074;2023-05-01T06:26:19;100624.09;;;14.45;54.07
64792;BME280;51226;47.504;19.074;2023-05-01T06:29:23;100627.22;;;14.63;52.53
64792;BME280;51226;47.504;19.074;2023-05-01T06:32:27;100626.72;;;14.80;52.01
64792;BME280;51226;47.504;19.074;2023-05-01T06:35:29;100627.94;;;14.94;51.87
64792;BME280;51226;47.504;19.074;2023-05-01T06:38:32;100621.56;;;15.21;47.64
64792;BME280;51226;47.504;19.074;2023-05-01T06:41:37;100622.84;;;15.38;47.39
64792;BME280;51226;47.504;19.074;2023-05-01T06:44:39;100614.97;;;15.38;46.87
64792;BME280;51226;47.504;19.074;2023-05-01T06:47:43;100621.50;;;15.57;45.71
64792;BME280;51226;47.504;19.074;2023-05-01T06:50:45;100626.31;;;15.76;45.28
64792;BME280;51226;47.504;19.074;2023-05-01T06:53:48;100630.97;;;15.89;47.08
64792;BME280;51226;47.504;19.074;2023-05-01T06:56:51;100630.37;;;16.04;44.14
64792;BME280;51226;47.504;19.074;2023-05-01T06:59:56;100623.00;;;16.33;37.98
64792;BME280;51226;47.504;19.074;2023-05-01T07:02:59;100621.22;;;16.30;39.91
64792;BME280;51226;47.504;19.074;2023-05-01T07:06:04;100624.22;;;16.51;39.68
64792;BME280;51226;47.504;19.074;2023-05-01T07:09:07;100616.91;;;16.84;37.71
64792;BME280;51226;47.504;19.074;2023-05-01T07:12:10;100614.50;;;17.00;36.28
64792;BME280;51226;47.504;19.074;2023-05-01T07:15:12;100622.56;;;17.09;37.73
64792;BME280;51226;47.504;19.074;2023-05-01T07:18:18;100624.50;;;17.21;37.49
64792;BME280;51226;47.504;19.074;2023-05-01T07:21:20;100621.22;;;17.37;38.77
64792;BME280;51226;47.504;19.074;2023-05-01T07:24:23;100619.91;;;17.72;35.12
64792;BME280;51226;47.504;19.074;2023-05-01T07:27:26;100619.31;;;17.93;36.39
64792;BME280;51226;47.504;19.074;2023-05-01T07:30:30;100619.47;;;18.07;35.82
64792;BME280;51226;47.504;19.074;2023-05-01T07:33:34;100623.16;;;18.21;34.67
64792;BME280;51226;47.504;19.074;2023-05-01T07:36:37;100618.00;;;18.33;35.68
64792;BME280;51226;47.504;19.074;2023-05-01T07:39:39;100629.59;;;18.49;35.26
64792;BME280;51226;47.504;19.074;2023-05-01T07:42:42;100624.41;;;18.60;35.66
64792;BME280;51226;47.504;19.074;2023-05-01T07:45:58;100614.84;;;18.75;35.48
64792;BME280;51226;47.504;19.074;2023-05-01T07:49:02;100618.53;;;18.92;33.43
64792;BME280;51226;47.504;19.074;2023-05-01T07:52:05;100617.84;;;19.22;33.32
64792;BME280;51226;47.504;19.074;2023-05-01T07:55:11;100625.88;;;19.41;33.06
64792;BME280;51226;47.504;19.074;2023-05-01T07:58:14;100619.81;;;19.51;31.79
64792;BME280;51226;47.504;19.074;2023-05-01T08:01:17;100621.62;;;19.69;31.53
64792;BME280;51226;47.504;19.074;2023-05-01T08:04:19;100626.22;;;19.98;31.86
64792;BME280;51226;47.504;19.074;2023-05-01T08:07:24;100624.53;;;20.42;32.66
64792;BME280;51226;47.504;19.074;2023-05-01T08:10:27;100621.91;;;20.91;30.68
64792;BME280;51226;47.504;19.074;2023-05-01T08:13:30;100624.56;;;21.14;30.83
64792;BME280;51226;47.504;19.074;2023-05-01T08:16:33;100621.81;;;21.46;29.37
64792;BME280;51226;47.504;19.074;2023-05-01T08:19:36;100624.47;;;21.45;28.28
64792;BME280;51226;47.504;19.074;2023-05-01T08:22:39;100614.72;;;21.65;29.18
64792;BME280;51226;47.504;19.074;2023-05-01T08:25:42;100619.75;;;22.24;28.15
64792;BME280;51226;47.504;19.074;2023-05-01T08:28:44;100611.47;;;22.70;26.86
64792;BME280;51226;47.504;19.074;2023-05-01T08:31:47;100621.78;;;23.06;28.11
64792;BME280;51226;47.504;19.074;2023-05-01T08:34:50;100611.75;;;23.37;26.23
64792;BME280;51226;47.504;19.074;2023-05-01T08:37:52;100608.72;;;23.68;27.74
64792;BME280;51226;47.504;19.074;2023-05-01T08:40:55;100612.44;;;24.23;25.82
64792;BME280;51226;47.504;19.074;2023-05-01T08:44:00;100608.34;;;24.59;23.79
64792;BME280;51226;47.504;19.074;2023-05-01T08:47:15;100605.94;;;24.95;23.82
64792;BME280;51226;47.504;19.074;2023-05-01T08:50:18;100604.56;;;25.24;26.56
64792;BME280;51226;47.504;19.074;2023-05-01T08:53:27;100600.06;;;25.28;24.90
64792;BME280;51226;47.504;19.074;2023-05-01T08:56:30;100600.56;;;25.47;23.70
64792;BME280;51226;47.504;19.074;2023-05-01T08:59:33;100593.50;;;25.88;23.85
64792;BME280;51226;47.504;19.074;2023-05-01T09:02:36;100600.09;;;26.12;22.32
64792;BME280;51226;47.504;19.074;2023-05-01T09:05:40;100600.19;;;26.47;23.57
64792;BME280;51226;47.504;19.074;2023-05-01T09:08:42;100595.53;;;26.55;23.39
64792;BME280;51226;47.504;19.074;2023-05-01T09:11:45;100596.66;;;26.82;24.09
64792;BME280;51226;47.504;19.074;2023-05-01T09:14:48;100589.56;;;27.14;24.70
64792;BME280;51226;47.504;19.074;2023-05-01T09:17:51;100588.78;;;27.43;21.26
64792;BME280;51226;47.504;19.074;2023-05-01T09:20:54;100590.34;;;27.82;22.55
64792;BME280;51226;47.504;19.074;2023-05-01T09:23:57;100592.44;;;28.02;23.00
64792;BME280;51226;47.504;19.074;2023-05-01T09:27:00;100583.09;;;28.15;19.60
64792;BME280;51226;47.504;19.074;2023-05-01T09:30:06;100580.72;;;28.33;20.32
64792;BME280;51226;47.504;19.074;2023-05-01T09:33:11;100574.38;;;28.63;21.72
64792;BME280;51226;47.504;19.074;2023-05-01T09:36:15;100578.78;;;28.91;18.99
64792;BME280;51226;47.504;19.074;2023-05-01T09:39:21;100585.81;;;28.42;20.76
64792;BME280;51226;47.504;19.074;2023-05-01T09:42:24;100574.75;;;28.51;21.70
64792;BME280;51226;47.504;19.074;2023-05-01T09:45:26;100575.53;;;28.81;20.55
64792;BME280;51226;47.504;19.074;2023-05-01T09:48:29;100570.66;;;29.19;20.79
64792;BME280;51226;47.504;19.074;2023-05-01T09:51:36;100565.00;;;29.27;19.42
64792;BME280;51226;47.504;19.074;2023-05-01T09:54:39;100564.19;;;29.49;20.47
64792;BME280;51226;47.504;19.074;2023-05-01T09:57:42;100552.97;;;29.61;19.68
64792;BME280;51226;47.504;19.074;2023-05-01T10:00:47;100554.69;;;29.64;18.71
64792;BME280;51226;47.504;19.074;2023-05-01T10:03:53;100565.28;;;29.19;19.74
64792;BME280;51226;47.504;19.074;2023-05-01T10:06:56;100560.62;;;28.98;20.61
64792;BME280;51226;47.504;19.074;2023-05-01T10:10:18;100551.81;;;28.69;18.99
64792;BME280;51226;47.504;19.074;2023-05-01T10:13:21;100553.78;;;28.64;21.17
64792;BME280;51226;47.504;19.074;2023-05-01T10:16:27;100548.91;;;28.49;21.61
64792;BME280;51226;47.504;19.074;2023-05-01T10:19:31;100544.84;;;28.63;21.02
64792;BME280;51226;47.504;19.074;2023-05-01T10:22:33;100540.19;;;28.69;20.80
64792;BME280;51226;47.504;19.074;2023-05-01T10:25:36;100533.41;;;28.83;20.60
64792;BME280;51226;47.504;19.074;2023-05-01T10:28:40;100534.44;;;29.30;20.38
64792;BME280;51226;47.504;19.074;2023-05-01T10:31:43;100526.81;;;29.43;20.31
64792;BME280;51226;47.504;19.074;2023-05-01T10:34:50;100521.91;;;29.54;21.63
64792;BME280;51226;47.504;19.074;2023-05-01T10:38:03;100516.81;;;29.92;19.51
64792;BME280;51226;47.504;19.074;2023-05-01T10:41:07;100518.47;;;29.72;20.73
64792;BME280;51226;47.504;19.074;2023-05-01T10:44:21;100527.16;;;29.57;19.39
64792;BME280;51226;47.504;19.074;2023-05-01T10:50:32;100502.97;;;29.57;19.33
64792;BME280;51226;47.504;19.074;2023-05-01T10:53:36;100502.38;;;29.25;20.70
64792;BME280;51226;47.504;19.074;2023-05-01T10:56:39;100504.50;;;29.41;20.80
64792;BME280;51226;47.504;19.074;2023-05-01T11:06:23;100502.38;;;28.48;21.24
64792;BME280;51226;47.504;19.074;2023-05-01T11:15:48;100492.75;;;28.94;20.35
64792;BME280;51226;47.504;19.074;2023-05-01T11:18:51;100488.94;;;29.49;19.91
64792;BME280;51226;47.504;19.074;2023-05-01T11:21:53;100489.00;;;29.47;20.53
64792;BME280;51226;47.504;19.074;2023-05-01T11:28:20;100479.78;;;29.99;20.91
64792;BME280;51226;47.504;19.074;2023-05-01T11:31:24;100483.69;;;29.91;20.69
64792;BME280;51226;47.504;19.074;2023-05-01T11:34:27;100476.81;;;29.84;20.42
64792;BME280;51226;47.504;19.074;2023-05-01T11:37:42;100463.25;;;29.87;19.33
64792;BME280;51226;47.504;19.074;2023-05-01T11:40:51;100469.66;;;29.37;20.62
64792;BME280;51226;47.504;19.074;2023-05-01T11:43:58;100461.13;;;29.26;20.32
64792;BME280;51226;47.504;19.074;2023-05-01T11:47:00;100450.63;;;29.20;20.13
64792;BME280;51226;47.504;19.074;2023-05-01T11:50:04;100456.84;;;28.97;21.23
64792;BME280;51226;47.504;19.074;2023-05-01T11:53:11;100457.19;;;29.11;20.41
64792;BME280;51226;47.504;19.074;2023-05-01T11:56:17;100450.69;;;28.93;21.77
64792;BME280;51226;47.504;19.074;2023-05-01T11:59:28;100443.97;;;28.81;22.27
64792;BME280;51226;47.504;19.074;2023-05-01T12:02:32;100448.94;;;28.69;22.42
64792;BME280;51226;47.504;19.074;2023-05-01T12:05:37;100456.00;;;28.95;22.48
64792;BME280;51226;47.504;19.074;2023-05-01T12:08:41;100453.28;;;28.96;20.38
64792;BME280;51226;47.504;19.074;2023-05-01T12:11:45;100443.31;;;28.75;22.64
64792;BME280;51226;47.504;19.074;2023-05-01T12:14:48;100445.31;;;28.70;20.60
64792;BME280;51226;47.504;19.074;2023-05-01T12:17:51;100432.81;;;28.43;22.63
64792;BME280;51226;47.504;19.074;2023-05-01T12:20:54;100426.22;;;28.27;22.49
64792;BME280;51226;47.504;19.074;2023-05-01T12:24:10;100434.50;;;28.46;22.54
64792;BME280;51226;47.504;19.074;2023-05-01T12:27:13;100431.41;;;28.05;22.83
64792;BME280;51226;47.504;19.074;2023-05-01T12:30:23;100436.13;;;27.98;21.38
64792;BME280;51226;47.504;19.074;2023-05-01T12:33:25;100419.16;;;27.98;21.05
64792;BME280;51226;47.504;19.074;2023-05-01T12:36:29;100416.53;;;27.40;23.80
64792;BME280;51226;47.504;19.074;2023-05-01T12:39:39;100420.81;;;27.15;23.33
64792;BME280;51226;47.504;19.074;2023-05-01T12:42:43;100422.25;;;27.27;23.64
64792;BME280;51226;47.504;19.074;2023-05-01T12:45:55;100400.75;;;27.59;22.13
64792;BME280;51226;47.504;19.074;2023-05-01T12:49:00;100408.34;;;27.72;22.42
64792;BME280;51226;47.504;19.074;2023-05-01T12:52:04;100412.94;;;27.69;22.06
64792;BME280;51226;47.504;19.074;2023-05-01T12:55:07;100410.88;;;27.77;24.27
64792;BME280;51226;47.504;19.074;2023-05-01T12:58:10;100397.03;;;27.34;30.45
64792;BME280;51226;47.504;19.074;2023-05-01T13:01:21;100388.69;;;27.15;26.58
64792;BME280;51226;47.504;19.074;2023-05-01T13:04:24;100382.69;;;27.07;24.81
64792;BME280;51226;47.504;19.074;2023-05-01T13:07:28;100383.88;;;26.97;23.62
64792;BME280;51226;47.504;19.074;2023-05-01T13:10:30;100376.13;;;27.17;27.08
64792;BME280;51226;47.504;19.074;2023-05-01T13:13:34;100386.72;;;26.91;26.14
64792;BME280;51226;47.504;19.074;2023-05-01T13:16:43;100377.31;;;27.07;23.43
64792;BME280;51226;47.504;19.074;2023-05-01T13:23:00;100372.00;;;26.76;26.71
64792;BME280;51226;47.504;19.074;2023-05-01T13:26:10;100365.25;;;26.61;25.26
64792;BME280;51226;47.504;19.074;2023-05-01T13:29:14;100364.44;;;26.59;26.97
64792;BME280;51226;47.504;19.074;2023-05-01T13:32:17;100360.72;;;26.65;24.69
64792;BME280;51226;47.504;19.074;2023-05-01T13:35:22;100360.94;;;26.57;23.04
64792;BME280;51226;47.504;19.074;2023-05-01T13:38:28;100353.28;;;26.12;24.73
64792;BME280;51226;47.504;19.074;2023-05-01T13:41:32;100354.28;;;26.06;23.72
64792;BME280;51226;47.504;19.074;2023-05-01T13:44:43;100340.59;;;25.84;25.68
64792;BME280;51226;47.504;19.074;2023-05-01T13:47:46;100338.37;;;25.65;25.00
64792;BME280;51226;47.504;19.074;2023-05-01T13:50:50;100334.12;;;25.58;26.36
64792;BME280;51226;47.504;19.074;2023-05-01T13:53:54;100338.69;;;25.53;25.12
64792;BME280;51226;47.504;19.074;2023-05-01T13:56:59;100340.62;;;25.48;25.86
64792;BME280;51226;47.504;19.074;2023-05-01T14:00:02;100332.81;;;25.39;25.36
64792;BME280;51226;47.504;19.074;2023-05-01T14:03:14;100328.78;;;25.19;25.42
64792;BME280;51226;47.504;19.074;2023-05-01T14:06:18;100317.72;;;24.97;25.66
64792;BME280;51226;47.504;19.074;2023-05-01T14:09:21;100319.66;;;24.90;25.99
64792;BME280;51226;47.504;19.074;2023-05-01T14:12:33;100319.16;;;24.73;26.50
64792;BME280;51226;47.504;19.074;2023-05-01T14:15:35;100328.31;;;24.59;27.44
64792;BME280;51226;47.504;19.074;2023-05-01T14:18:46;100325.78;;;24.52;28.06
64792;BME280;51226;47.504;19.074;2023-05-01T14:21:49;100320.06;;;24.27;28.51
64792;BME280;51226;47.504;19.074;2023-05-01T14:24:52;100315.94;;;24.09;27.60
64792;BME280;51226;47.504;19.074;2023-05-01T14:27:55;100309.03;;;23.98;27.13
64792;BME280;51226;47.504;19.074;2023-05-01T14:30:58;100306.53;;;23.91;27.21
64792;BME280;51226;47.504;19.074;2023-05-01T14:34:02;100309.38;;;23.78;25.84
64792;BME280;51226;47.504;19.074;2023-05-01T14:37:05;100298.28;;;23.52;28.03
64792;BME280;51226;47.504;19.074;2023-05-01T14:40:10;100307.38;;;23.38;28.12
64792;BME280;51226;47.504;19.074;2023-05-01T14:43:17;100300.53;;;23.22;28.52
64792;BME280;51226;47.504;19.074;2023-05-01T14:46:30;100295.22;;;23.20;26.57
64792;BME280;51226;47.504;19.074;2023-05-01T14:49:33;100295.50;;;22.99;28.49
64792;BME280;51226;47.504;19.074;2023-05-01T14:52:36;100286.91;;;22.83;28.57
64792;BME280;51226;47.504;19.074;2023-05-01T14:55:40;100288.88;;;22.65;28.95
64792;BME280;51226;47.504;19.074;2023-05-01T14:58:43;100281.09;;;22.53;29.85
64792;BME280;51226;47.504;19.074;2023-05-01T15:01:46;100275.53;;;22.70;27.56
64792;BME280;51226;47.504;19.074;2023-05-01T15:04:48;100280.06;;;22.62;29.03
64792;BME280;51226;47.504;19.074;2023-05-01T15:07:54;100287.16;;;22.64;29.44
64792;BME280;51226;47.504;19.074;2023-05-01T15:11:01;100290.91;;;22.48;28.12
64792;BME280;51226;47.504;19.074;2023-05-01T15:14:04;100291.03;;;22.37;29.67
64792;BME280;51226;47.504;19.074;2023-05-01T15:17:07;100293.75;;;22.28;29.60
64792;BME280;51226;47.504;19.074;2023-05-01T15:20:10;100284.84;;;22.33;28.54
64792;BME280;51226;47.504;19.074;2023-05-01T15:23:13;100284.19;;;22.13;31.31
64792;BME280;51226;47.504;19.074;2023-05-01T15:26:16;100286.00;;;22.11;30.08
64792;BME280;51226;47.504;19.074;2023-05-01T15:29:19;100282.53;;;22.02;30.33
64792;BME280;51226;47.504;19.074;2023-05-01T15:32:22;100278.28;;;21.86;30.58
64792;BME280;51226;47.504;19.074;2023-05-01T15:35:25;100280.13;;;21.78;31.53
64792;BME280;51226;47.504;19.074;2023-05-01T15:38:28;100276.59;;;21.76;30.06
64792;BME280;51226;47.504;19.074;2023-05-01T15:41:31;100273.06;;;21.77;29.95
64792;BME280;51226;47.504;19.074;2023-05-01T15:44:34;100268.72;;;21.67;30.48
64792;BME280;51226;47.504;19.074;2023-05-01T15:47:36;100272.34;;;21.56;30.06
64792;BME280;51226;47.504;19.074;2023-05-01T15:50:45;100268.84;;;21.54;30.10
64792;BME280;51226;47.504;19.074;2023-05-01T15:53:50;100280.31;;;21.56;29.96
64792;BME280;51226;47.504;19.074;2023-05-01T15:56:53;100270.66;;;21.49;31.36
64792;BME280;51226;47.504;19.074;2023-05-01T15:59:56;100273.31;;;21.44;30.75
64792;BME280;51226;47.504;19.074;2023-05-01T16:03:00;100276.00;;;21.38;30.73
64792;BME280;51226;47.504;19.074;2023-05-01T16:06:04;100273.44;;;21.31;29.97
64792;BME280;51226;47.504;19.074;2023-05-01T16:09:07;100274.28;;;21.36;29.82
64792;BME280;51226;47.504;19.074;2023-05-01T16:12:10;100277.94;;;21.16;30.82
64792;BME280;51226;47.504;19.074;2023-05-01T16:15:13;100277.97;;;21.12;30.08
64792;BME280;51226;47.504;19.074;2023-05-01T16:18:17;100276.34;;;20.98;31.44
64792;BME280;51226;47.504;19.074;2023-05-01T16:21:21;100283.47;;;20.88;31.67
64792;BME280;51226;47.504;19.074;2023-05-01T16:24:24;100277.31;;;20.83;31.52
64792;BME280;51226;47.504;19.074;2023-05-01T16:27:27;100276.44;;;20.78;31.57
64792;BME280;51226;47.504;19.074;2023-05-01T16:30:30;100269.38;;;20.77;30.70
64792;BME280;51226;47.504;19.074;2023-05-01T16:33:33;100267.66;;;20.70;31.24